Aeroporto :
LOGIN :

Iscrizione | Disclaimer

   EN    FR    IT 

 










Sommario :    VFR   VFR Marginale   IFR   IFR Intensivo   IFR Molto Intensivo
Visibilità : 
Base nubi : 
>= 8 km
>= 3000ft
5 / 8 km
1000 / 3000 ft
1500m / 5 km
500 / 1000 ft
800 / 1500m
200 / 500 ft
< 800m
< 200 ft
Simboli :   Temporali  Nebbia  Neve Forte  Precipitazioni Forti  Vento > 20 kt
SIGMETs :   Varie  Temporali  Ghiacco  Turbolenza  Onda orograficha  Ceneri Vulcaniche






- Altitudine del aeroporto : 1367 ft
- Codice IATA : FDH


EDNY - Friedrichshafen

ULTIMO METAR :
  • 282120Z AUTO 06006KT 020V080 9999 // OVC013/// 02/00 Q1017

METARs OBSOLETI :
  • 282050Z AUTO 04005KT 350V080 9999 // OVC014/// 02/00 Q1018
  • 282020Z AUTO 04005KT 350V070 9999 // OVC015/// 02/00 Q1017
  • 281950Z AUTO 03005KT 350V080 9999 // OVC015/// 02/M00 Q1017
  • 281920Z AUTO 03005KT 330V070 9999 // OVC014/// 02/M00 Q1017
  • 281850Z AUTO 04004KT 350V070 9999 // OVC014/// 02/M00 Q1017

TAF TAF EDNY
Valido dal 28 a 18 ore il 29 a 18 ore UTC


281700Z 2818/2918 03008KT 8000 OVC015
TEMPO 2818/2909 OVC008



MetMap, La meteo Aeronautica in un colpo d'occhio ! - Copyright ORBIFLY Dicembre 2007 - Disclaimer

ORBIFLY MET'MAP TEAM :

Programmazione e sviluppo : Alexandra Zaïnal
Concezione : Baudouin d'Aumeries
Aiuto per la programmazione : Marc-Olivier Méhu
Supporto tecnico e logistico : Manuel Goepfert
Aiuto per la traduzione : Arnaldo La Scala

Contatto : metmap@orbifly.com




FONTI E CREDITI :

   NOAA